sensor_id;sensor_type;location;lat;lon;timestamp;pressure;altitude;pressure_sealevel;temperature;humidity
79372;BME280;68914;51.262;6.802;2023-07-31T00:00:56;100883.34;;;20.34;nan
79372;BME280;68914;51.262;6.802;2023-07-31T00:02:06;100876.78;;;20.10;nan
79372;BME280;68914;51.262;6.802;2023-07-31T00:03:06;100884.03;;;20.14;nan
79372;BME280;68914;51.262;6.802;2023-07-31T00:04:07;100885.97;;;20.24;nan
79372;BME280;68914;51.262;6.802;2023-07-31T00:05:10;100882.44;;;20.13;nan
79372;BME280;68914;51.262;6.802;2023-07-31T00:06:17;100883.88;;;19.84;nan
79372;BME280;68914;51.262;6.802;2023-07-31T00:07:18;100887.66;;;19.93;nan
79372;BME280;68914;51.262;6.802;2023-07-31T00:08:34;100887.16;;;19.96;nan
79372;BME280;68914;51.262;6.802;2023-07-31T00:10:46;100880.91;;;19.85;nan
79372;BME280;68914;51.262;6.802;2023-07-31T00:12:22;100878.69;;;20.14;nan
79372;BME280;68914;51.262;6.802;2023-07-31T00:13:28;100886.72;;;20.14;nan
79372;BME280;68914;51.262;6.802;2023-07-31T00:14:44;100885.09;;;20.13;nan
79372;BME280;68914;51.262;6.802;2023-07-31T00:15:48;100876.53;;;20.11;nan
79372;BME280;68914;51.262;6.802;2023-07-31T00:17:03;100876.06;;;19.82;nan
79372;BME280;68914;51.262;6.802;2023-07-31T00:18:13;100879.56;;;19.83;nan
79372;BME280;68914;51.262;6.802;2023-07-31T00:19:14;100883.63;;;20.38;nan
79372;BME280;68914;51.262;6.802;2023-07-31T00:20:21;100888.44;;;20.36;nan
79372;BME280;68914;51.262;6.802;2023-07-31T00:21:27;100879.66;;;19.98;nan
79372;BME280;68914;51.262;6.802;2023-07-31T00:22:28;100886.16;;;19.70;nan
79372;BME280;68914;51.262;6.802;2023-07-31T00:23:28;100882.44;;;20.13;nan
79372;BME280;68914;51.262;6.802;2023-07-31T00:24:32;100880.34;;;20.21;nan
79372;BME280;68914;51.262;6.802;2023-07-31T00:25:36;100882.09;;;20.00;nan
79372;BME280;68914;51.262;6.802;2023-07-31T00:26:36;100876.94;;;19.88;nan
79372;BME280;68914;51.262;6.802;2023-07-31T00:27:37;100882.16;;;20.15;nan
79372;BME280;68914;51.262;6.802;2023-07-31T00:28:38;100891.97;;;19.99;nan
79372;BME280;68914;51.262;6.802;2023-07-31T00:30:01;100884.03;;;20.14;nan
79372;BME280;68914;51.262;6.802;2023-07-31T00:31:07;100885.41;;;20.17;nan
79372;BME280;68914;51.262;6.802;2023-07-31T00:32:08;100882.50;;;19.81;nan
79372;BME280;68914;51.262;6.802;2023-07-31T00:33:26;100883.50;;;20.12;nan
79372;BME280;68914;51.262;6.802;2023-07-31T00:34:32;100882.53;;;19.86;nan
79372;BME280;68914;51.262;6.802;2023-07-31T00:35:33;100881.63;;;20.13;nan
79372;BME280;68914;51.262;6.802;2023-07-31T00:36:34;100882.81;;;20.32;nan
79372;BME280;68914;51.262;6.802;2023-07-31T00:37:34;100877.16;;;20.29;nan
79372;BME280;68914;51.262;6.802;2023-07-31T00:38:36;100880.91;;;19.85;nan
79372;BME280;68914;51.262;6.802;2023-07-31T00:39:51;100890.94;;;20.00;nan
79372;BME280;68914;51.262;6.802;2023-07-31T00:40:58;100870.13;;;20.18;nan
79372;BME280;68914;51.262;6.802;2023-07-31T00:42:00;100889.41;;;19.72;nan
79372;BME280;68914;51.262;6.802;2023-07-31T00:43:00;100883.22;;;20.09;nan
79372;BME280;68914;51.262;6.802;2023-07-31T00:44:01;100882.34;;;19.98;nan
79372;BME280;68914;51.262;6.802;2023-07-31T00:45:14;100880.56;;;20.14;nan
79372;BME280;68914;51.262;6.802;2023-07-31T00:46:33;100879.22;;;20.11;nan
79372;BME280;68914;51.262;6.802;2023-07-31T00:47:49;100877.34;;;20.12;nan
79372;BME280;68914;51.262;6.802;2023-07-31T00:48:53;100873.28;;;20.52;nan
79372;BME280;68914;51.262;6.802;2023-07-31T00:49:53;100873.56;;;20.60;nan
79372;BME280;68914;51.262;6.802;2023-07-31T00:51:45;100863.97;;;20.12;nan
79372;BME280;68914;51.262;6.802;2023-07-31T00:52:52;100872.53;;;20.19;nan
79372;BME280;68914;51.262;6.802;2023-07-31T00:53:53;100868.84;;;19.83;nan
79372;BME280;68914;51.262;6.802;2023-07-31T00:54:54;100872.22;;;20.05;nan
79372;BME280;68914;51.262;6.802;2023-07-31T00:55:57;100875.09;;;19.99;nan
79372;BME280;68914;51.262;6.802;2023-07-31T00:57:05;100877.59;;;20.10;nan
79372;BME280;68914;51.262;6.802;2023-07-31T00:58:17;100871.22;;;20.17;nan
79372;BME280;68914;51.262;6.802;2023-07-31T00:59:17;100875.06;;;19.88;nan
79372;BME280;68914;51.262;6.802;2023-07-31T01:00:19;100869.41;;;20.27;nan
79372;BME280;68914;51.262;6.802;2023-07-31T01:01:20;100867.53;;;20.28;nan
79372;BME280;68914;51.262;6.802;2023-07-31T01:02:22;100869.53;;;20.05;nan
79372;BME280;68914;51.262;6.802;2023-07-31T01:03:22;100866.28;;;20.03;nan
79372;BME280;68914;51.262;6.802;2023-07-31T01:04:26;100868.91;;;20.35;nan
79372;BME280;68914;51.262;6.802;2023-07-31T01:07:49;100869.53;;;20.05;nan
79372;BME280;68914;51.262;6.802;2023-07-31T01:09:04;100861.00;;;20.13;nan
79372;BME280;68914;51.262;6.802;2023-07-31T01:10:50;100858.19;;;20.41;nan
79372;BME280;68914;51.262;6.802;2023-07-31T01:11:55;100855.13;;;20.11;nan
79372;BME280;68914;51.262;6.802;2023-07-31T01:13:03;100857.31;;;20.20;nan
79372;BME280;68914;51.262;6.802;2023-07-31T01:14:04;100851.88;;;20.09;nan
79372;BME280;68914;51.262;6.802;2023-07-31T01:15:11;100859.22;;;20.34;nan
79372;BME280;68914;51.262;6.802;2023-07-31T01:16:17;100859.78;;;20.36;nan
79372;BME280;68914;51.262;6.802;2023-07-31T01:17:18;100866.47;;;20.34;nan
79372;BME280;68914;51.262;6.802;2023-07-31T01:18:18;100852.53;;;20.32;nan
79372;BME280;68914;51.262;6.802;2023-07-31T01:19:22;100860.50;;;20.17;nan
79372;BME280;68914;51.262;6.802;2023-07-31T01:20:41;100855.94;;;20.17;nan
79372;BME280;68914;51.262;6.802;2023-07-31T01:23:30;100856.03;;;20.32;nan
79372;BME280;68914;51.262;6.802;2023-07-31T01:26:28;100853.63;;;20.36;nan
79372;BME280;68914;51.262;6.802;2023-07-31T01:28:11;100849.59;;;20.28;nan
79372;BME280;68914;51.262;6.802;2023-07-31T01:29:47;100855.91;;;20.59;nan
79372;BME280;68914;51.262;6.802;2023-07-31T01:30:58;100853.53;;;20.16;nan
79372;BME280;68914;51.262;6.802;2023-07-31T01:32:10;100861.09;;;20.29;nan
79372;BME280;68914;51.262;6.802;2023-07-31T01:33:21;100855.53;;;19.93;nan
79372;BME280;68914;51.262;6.802;2023-07-31T01:35:43;100868.34;;;20.38;nan
79372;BME280;68914;51.262;6.802;2023-07-31T01:36:47;100853.50;;;20.10;nan
79372;BME280;68914;51.262;6.802;2023-07-31T01:37:48;100859.34;;;20.02;nan
79372;BME280;68914;51.262;6.802;2023-07-31T01:38:48;100856.53;;;20.24;nan
79372;BME280;68914;51.262;6.802;2023-07-31T01:39:51;100856.22;;;20.16;nan
79372;BME280;68914;51.262;6.802;2023-07-31T01:40:58;100854.09;;;20.23;nan
79372;BME280;68914;51.262;6.802;2023-07-31T01:41:59;100858.91;;;20.21;nan
79372;BME280;68914;51.262;6.802;2023-07-31T01:43:03;100858.34;;;20.13;nan
79372;BME280;68914;51.262;6.802;2023-07-31T01:44:10;100861.44;;;19.95;nan
79372;BME280;68914;51.262;6.802;2023-07-31T01:45:16;100861.13;;;19.92;nan
79372;BME280;68914;51.262;6.802;2023-07-31T01:46:17;100847.72;;;20.34;nan
79372;BME280;68914;51.262;6.802;2023-07-31T01:47:18;100854.56;;;20.09;nan
79372;BME280;68914;51.262;6.802;2023-07-31T01:48:18;100853.16;;;19.97;nan
79372;BME280;68914;51.262;6.802;2023-07-31T01:49:39;100854.44;;;20.36;nan
79372;BME280;68914;51.262;6.802;2023-07-31T01:50:46;100843.88;;;20.14;nan
79372;BME280;68914;51.262;6.802;2023-07-31T01:51:46;100851.31;;;20.02;nan
79372;BME280;68914;51.262;6.802;2023-07-31T01:52:53;100850.22;;;19.98;nan
79372;BME280;68914;51.262;6.802;2023-07-31T01:54:02;100847.66;;;20.19;nan
79372;BME280;68914;51.262;6.802;2023-07-31T01:55:09;100843.06;;;20.09;nan
79372;BME280;68914;51.262;6.802;2023-07-31T01:56:12;100851.97;;;20.25;nan
79372;BME280;68914;51.262;6.802;2023-07-31T01:57:13;100855.75;;;20.34;nan
79372;BME280;68914;51.262;6.802;2023-07-31T01:58:13;100853.28;;;20.17;nan
79372;BME280;68914;51.262;6.802;2023-07-31T01:59:14;100850.00;;;20.05;nan
79372;BME280;68914;51.262;6.802;2023-07-31T02:00:19;100843.78;;;19.99;nan
79372;BME280;68914;51.262;6.802;2023-07-31T02:01:25;100842.13;;;20.46;nan
79372;BME280;68914;51.262;6.802;2023-07-31T02:02:32;100844.53;;;20.37;nan
79372;BME280;68914;51.262;6.802;2023-07-31T02:03:33;100842.75;;;20.53;nan
79372;BME280;68914;51.262;6.802;2023-07-31T02:04:34;100841.38;;;20.50;nan
79372;BME280;68914;51.262;6.802;2023-07-31T02:05:35;100844.09;;;20.60;nan
79372;BME280;68914;51.262;6.802;2023-07-31T02:06:38;100840.41;;;20.14;nan
79372;BME280;68914;51.262;6.802;2023-07-31T02:07:46;100842.53;;;20.12;nan
79372;BME280;68914;51.262;6.802;2023-07-31T02:08:52;100839.59;;;20.13;nan
79372;BME280;68914;51.262;6.802;2023-07-31T02:09:53;100835.63;;;20.21;nan
79372;BME280;68914;51.262;6.802;2023-07-31T02:10:54;100841.78;;;20.22;nan
79372;BME280;68914;51.262;6.802;2023-07-31T02:12:00;100844.28;;;19.91;nan
79372;BME280;68914;51.262;6.802;2023-07-31T02:13:07;100832.78;;;19.90;nan
79372;BME280;68914;51.262;6.802;2023-07-31T02:15:45;100836.84;;;19.98;nan
79372;BME280;68914;51.262;6.802;2023-07-31T02:16:45;100835.59;;;20.16;nan
79372;BME280;68914;51.262;6.802;2023-07-31T02:17:46;100833.91;;;20.52;nan
79372;BME280;68914;51.262;6.802;2023-07-31T02:18:52;100834.31;;;20.29;nan
79372;BME280;68914;51.262;6.802;2023-07-31T02:20:00;100842.09;;;19.83;nan
79372;BME280;68914;51.262;6.802;2023-07-31T02:21:01;100825.63;;;20.06;nan
79372;BME280;68914;51.262;6.802;2023-07-31T02:22:04;100839.88;;;20.12;nan
79372;BME280;68914;51.262;6.802;2023-07-31T02:23:05;100839.41;;;19.78;nan
79372;BME280;68914;51.262;6.802;2023-07-31T02:24:05;100833.47;;;19.71;nan
79372;BME280;68914;51.262;6.802;2023-07-31T02:25:07;100830.00;;;20.23;nan
79372;BME280;68914;51.262;6.802;2023-07-31T02:26:07;100837.22;;;20.17;nan
79372;BME280;68914;51.262;6.802;2023-07-31T02:27:14;100828.66;;;20.20;nan
79372;BME280;68914;51.262;6.802;2023-07-31T02:28:17;100841.13;;;20.52;nan
79372;BME280;68914;51.262;6.802;2023-07-31T02:29:24;100834.66;;;20.48;nan
79372;BME280;68914;51.262;6.802;2023-07-31T02:30:28;100832.38;;;20.14;nan
79372;BME280;68914;51.262;6.802;2023-07-31T02:31:29;100828.78;;;20.51;nan
79372;BME280;68914;51.262;6.802;2023-07-31T02:32:35;100830.25;;;20.21;nan
79372;BME280;68914;51.262;6.802;2023-07-31T02:33:42;100828.75;;;20.41;nan
79372;BME280;68914;51.262;6.802;2023-07-31T02:34:49;100824.75;;;20.48;nan
79372;BME280;68914;51.262;6.802;2023-07-31T02:35:57;100830.16;;;20.53;nan
79372;BME280;68914;51.262;6.802;2023-07-31T02:36:57;100820.34;;;20.22;nan
79372;BME280;68914;51.262;6.802;2023-07-31T02:38:04;100819.72;;;20.57;nan
79372;BME280;68914;51.262;6.802;2023-07-31T02:39:04;100821.81;;;20.50;nan
79372;BME280;68914;51.262;6.802;2023-07-31T02:40:05;100822.44;;;20.77;nan
79372;BME280;68914;51.262;6.802;2023-07-31T02:41:12;100814.16;;;20.79;nan
79372;BME280;68914;51.262;6.802;2023-07-31T02:42:19;100809.88;;;20.83;nan
79372;BME280;68914;51.262;6.802;2023-07-31T02:43:28;100815.19;;;20.78;nan
79372;BME280;68914;51.262;6.802;2023-07-31T02:44:32;100813.31;;;20.78;nan
79372;BME280;68914;51.262;6.802;2023-07-31T02:45:38;100809.03;;;20.77;nan
79372;BME280;68914;51.262;6.802;2023-07-31T02:46:39;100805.19;;;20.48;nan
79372;BME280;68914;51.262;6.802;2023-07-31T02:47:39;100809.28;;;20.55;nan
79372;BME280;68914;51.262;6.802;2023-07-31T02:48:46;100813.00;;;20.54;nan
79372;BME280;68914;51.262;6.802;2023-07-31T02:49:53;100806.59;;;20.60;nan
79372;BME280;68914;51.262;6.802;2023-07-31T02:50:53;100802.59;;;20.63;nan
79372;BME280;68914;51.262;6.802;2023-07-31T02:51:57;100802.28;;;20.54;nan
79372;BME280;68914;51.262;6.802;2023-07-31T02:53:03;100814.78;;;20.33;nan
79372;BME280;68914;51.262;6.802;2023-07-31T02:54:04;100806.00;;;20.48;nan
79372;BME280;68914;51.262;6.802;2023-07-31T02:55:10;100805.25;;;20.58;nan
79372;BME280;68914;51.262;6.802;2023-07-31T02:56:13;100810.34;;;20.59;nan
79372;BME280;68914;51.262;6.802;2023-07-31T02:57:14;100805.03;;;20.75;nan
79372;BME280;68914;51.262;6.802;2023-07-31T02:58:41;100807.41;;;20.61;nan
79372;BME280;68914;51.262;6.802;2023-07-31T02:59:41;100814.06;;;20.53;nan
79372;BME280;68914;51.262;6.802;2023-07-31T03:00:45;100806.88;;;20.59;nan
79372;BME280;68914;51.262;6.802;2023-07-31T03:01:45;100805.88;;;20.12;nan
79372;BME280;68914;51.262;6.802;2023-07-31T03:02:46;100809.44;;;20.38;nan
79372;BME280;68914;51.262;6.802;2023-07-31T03:03:47;100803.28;;;20.33;nan
79372;BME280;68914;51.262;6.802;2023-07-31T03:04:53;100805.94;;;20.33;nan
79372;BME280;68914;51.262;6.802;2023-07-31T03:05:54;100803.66;;;20.62;nan
79372;BME280;68914;51.262;6.802;2023-07-31T03:07:01;100804.41;;;20.47;nan
79372;BME280;68914;51.262;6.802;2023-07-31T03:08:07;100790.50;;;20.50;nan
79372;BME280;68914;51.262;6.802;2023-07-31T03:09:08;100796.16;;;20.59;nan
79372;BME280;68914;51.262;6.802;2023-07-31T03:10:14;100803.31;;;20.48;nan
79372;BME280;68914;51.262;6.802;2023-07-31T03:11:15;100802.78;;;20.46;nan
79372;BME280;68914;51.262;6.802;2023-07-31T03:12:17;100800.44;;;20.65;nan
79372;BME280;68914;51.262;6.802;2023-07-31T03:13:17;100791.59;;;20.59;nan
79372;BME280;68914;51.262;6.802;2023-07-31T03:14:33;100794.88;;;20.92;nan
79372;BME280;68914;51.262;6.802;2023-07-31T03:15:33;100798.88;;;20.84;nan
79372;BME280;68914;51.262;6.802;2023-07-31T03:16:37;100799.03;;;20.47;nan
79372;BME280;68914;51.262;6.802;2023-07-31T03:17:46;100801.53;;;20.64;nan
79372;BME280;68914;51.262;6.802;2023-07-31T03:18:47;100788.94;;;20.85;nan
79372;BME280;68914;51.262;6.802;2023-07-31T03:19:48;100798.59;;;20.76;nan
79372;BME280;68914;51.262;6.802;2023-07-31T03:20:54;100798.06;;;20.79;nan
79372;BME280;68914;51.262;6.802;2023-07-31T03:21:55;100799.31;;;20.51;nan
79372;BME280;68914;51.262;6.802;2023-07-31T03:23:01;100794.31;;;20.75;nan
79372;BME280;68914;51.262;6.802;2023-07-31T03:24:07;100801.81;;;20.78;nan
79372;BME280;68914;51.262;6.802;2023-07-31T03:25:08;100806.09;;;20.89;nan
79372;BME280;68914;51.262;6.802;2023-07-31T03:26:10;100810.66;;;20.83;nan
79372;BME280;68914;51.262;6.802;2023-07-31T03:27:11;100803.97;;;20.76;nan
79372;BME280;68914;51.262;6.802;2023-07-31T03:28:12;100799.59;;;20.49;nan
79372;BME280;68914;51.262;6.802;2023-07-31T03:29:18;100800.97;;;20.57;nan
79372;BME280;68914;51.262;6.802;2023-07-31T03:30:19;100798.84;;;20.69;nan
79372;BME280;68914;51.262;6.802;2023-07-31T03:31:37;100807.16;;;20.73;nan
79372;BME280;68914;51.262;6.802;2023-07-31T03:32:38;100798.84;;;20.74;nan
79372;BME280;68914;51.262;6.802;2023-07-31T03:33:44;100798.63;;;20.96;nan
79372;BME280;68914;51.262;6.802;2023-07-31T03:34:45;100804.22;;;20.79;nan
79372;BME280;68914;51.262;6.802;2023-07-31T03:35:45;100803.72;;;21.03;nan
79372;BME280;68914;51.262;6.802;2023-07-31T03:36:52;100803.44;;;21.25;nan
79372;BME280;68914;51.262;6.802;2023-07-31T03:37:52;100791.75;;;20.37;nan
79372;BME280;68914;51.262;6.802;2023-07-31T03:38:53;100805.00;;;20.70;nan
79372;BME280;68914;51.262;6.802;2023-07-31T03:40:03;100799.41;;;20.76;nan
79372;BME280;68914;51.262;6.802;2023-07-31T03:41:05;100797.53;;;20.92;nan
79372;BME280;68914;51.262;6.802;2023-07-31T03:42:06;100795.41;;;21.04;nan
79372;BME280;68914;51.262;6.802;2023-07-31T03:43:13;100795.09;;;20.65;nan
79372;BME280;68914;51.262;6.802;2023-07-31T03:44:19;100795.00;;;20.39;nan
79372;BME280;68914;51.262;6.802;2023-07-31T03:45:30;100794.25;;;20.49;nan
79372;BME280;68914;51.262;6.802;2023-07-31T03:46:46;100787.84;;;20.60;nan
79372;BME280;68914;51.262;6.802;2023-07-31T03:47:53;100784.81;;;20.42;nan
79372;BME280;68914;51.262;6.802;2023-07-31T03:48:55;100784.59;;;20.58;nan
79372;BME280;68914;51.262;6.802;2023-07-31T03:49:55;100781.47;;;20.87;nan
79372;BME280;68914;51.262;6.802;2023-07-31T03:51:02;100786.56;;;20.99;nan
79372;BME280;68914;51.262;6.802;2023-07-31T03:52:06;100777.19;;;21.11;nan
79372;BME280;68914;51.262;6.802;2023-07-31T03:53:06;100782.00;;;21.04;nan
79372;BME280;68914;51.262;6.802;2023-07-31T03:54:13;100778.75;;;20.82;nan
79372;BME280;68914;51.262;6.802;2023-07-31T03:55:14;100773.13;;;20.73;nan
79372;BME280;68914;51.262;6.802;2023-07-31T03:56:15;100772.06;;;20.90;nan
79372;BME280;68914;51.262;6.802;2023-07-31T03:57:19;100769.31;;;20.44;nan
79372;BME280;68914;51.262;6.802;2023-07-31T03:58:20;100773.91;;;20.53;nan
79372;BME280;68914;51.262;6.802;2023-07-31T03:59:20;100776.72;;;20.26;nan
79372;BME280;68914;51.262;6.802;2023-07-31T04:00:21;100781.09;;;20.48;nan
79372;BME280;68914;51.262;6.802;2023-07-31T04:01:23;100783.84;;;20.63;nan
79372;BME280;68914;51.262;6.802;2023-07-31T04:02:29;100772.56;;;20.61;nan
79372;BME280;68914;51.262;6.802;2023-07-31T04:03:36;100777.13;;;20.55;nan
79372;BME280;68914;51.262;6.802;2023-07-31T04:04:40;100772.53;;;20.51;nan
79372;BME280;68914;51.262;6.802;2023-07-31T04:05:46;100773.41;;;20.72;nan
79372;BME280;68914;51.262;6.802;2023-07-31T04:06:52;100773.13;;;20.68;nan
79372;BME280;68914;51.262;6.802;2023-07-31T04:07:59;100780.94;;;20.95;nan
79372;BME280;68914;51.262;6.802;2023-07-31T04:08:59;100782.81;;;21.05;nan
79372;BME280;68914;51.262;6.802;2023-07-31T04:10:00;100771.28;;;20.79;nan
79372;BME280;68914;51.262;6.802;2023-07-31T04:11:06;100779.31;;;20.99;nan
79372;BME280;68914;51.262;6.802;2023-07-31T04:12:12;100775.56;;;20.95;nan
79372;BME280;68914;51.262;6.802;2023-07-31T04:13:13;100768.34;;;21.11;nan
79372;BME280;68914;51.262;6.802;2023-07-31T04:14:14;100773.41;;;21.12;nan
79372;BME280;68914;51.262;6.802;2023-07-31T04:15:14;100776.09;;;20.97;nan
79372;BME280;68914;51.262;6.802;2023-07-31T04:16:15;100773.38;;;20.56;nan
79372;BME280;68914;51.262;6.802;2023-07-31T04:17:18;100774.47;;;20.86;nan
79372;BME280;68914;51.262;6.802;2023-07-31T04:18:19;100759.97;;;20.67;nan
79372;BME280;68914;51.262;6.802;2023-07-31T04:19:20;100775.81;;;20.88;nan
79372;BME280;68914;51.262;6.802;2023-07-31T04:20:24;100775.00;;;20.98;nan
79372;BME280;68914;51.262;6.802;2023-07-31T04:21:24;100781.72;;;20.96;nan
79372;BME280;68914;51.262;6.802;2023-07-31T04:22:25;100765.91;;;20.84;nan
79372;BME280;68914;51.262;6.802;2023-07-31T04:23:31;100769.66;;;20.78;nan
79372;BME280;68914;51.262;6.802;2023-07-31T04:24:32;100757.59;;;20.75;nan
79372;BME280;68914;51.262;6.802;2023-07-31T04:27:08;100755.19;;;20.63;nan
79372;BME280;68914;51.262;6.802;2023-07-31T04:28:09;100748.50;;;20.71;nan
79372;BME280;68914;51.262;6.802;2023-07-31T04:29:09;100744.19;;;20.85;nan
79372;BME280;68914;51.262;6.802;2023-07-31T04:30:16;100753.06;;;20.96;nan
79372;BME280;68914;51.262;6.802;2023-07-31T04:31:29;100756.81;;;21.00;nan
79372;BME280;68914;51.262;6.802;2023-07-31T04:32:35;100758.94;;;21.08;nan
79372;BME280;68914;51.262;6.802;2023-07-31T04:33:42;100751.13;;;20.61;nan
79372;BME280;68914;51.262;6.802;2023-07-31T04:34:43;100743.66;;;20.83;nan
79372;BME280;68914;51.262;6.802;2023-07-31T04:35:53;100745.53;;;20.88;nan
79372;BME280;68914;51.262;6.802;2023-07-31T04:37:08;100754.66;;;21.12;nan
79372;BME280;68914;51.262;6.802;2023-07-31T04:38:09;100754.91;;;21.06;nan
79372;BME280;68914;51.262;6.802;2023-07-31T04:39:10;100753.03;;;21.01;nan
79372;BME280;68914;51.262;6.802;2023-07-31T04:40:11;100751.44;;;21.21;nan
79372;BME280;68914;51.262;6.802;2023-07-31T04:41:17;100750.34;;;21.47;nan
79372;BME280;68914;51.262;6.802;2023-07-31T04:42:27;100747.94;;;21.25;nan
79372;BME280;68914;51.262;6.802;2023-07-31T04:43:33;100747.16;;;21.15;nan
79372;BME280;68914;51.262;6.802;2023-07-31T04:44:40;100750.88;;;21.29;nan
79372;BME280;68914;51.262;6.802;2023-07-31T04:45:44;100742.03;;;21.33;nan
79372;BME280;68914;51.262;6.802;2023-07-31T04:46:57;100737.16;;;21.66;nan
79372;BME280;68914;51.262;6.802;2023-07-31T04:47:58;100740.69;;;21.41;nan
79372;BME280;68914;51.262;6.802;2023-07-31T04:48:58;100734.25;;;21.37;nan
79372;BME280;68914;51.262;6.802;2023-07-31T04:49:59;100739.06;;;21.45;nan
79372;BME280;68914;51.262;6.802;2023-07-31T04:51:03;100741.22;;;21.38;nan
79372;BME280;68914;51.262;6.802;2023-07-31T04:52:06;100742.84;;;21.29;nan
79372;BME280;68914;51.262;6.802;2023-07-31T04:53:07;100734.28;;;21.42;nan
79372;BME280;68914;51.262;6.802;2023-07-31T04:54:13;100734.25;;;21.47;nan
79372;BME280;68914;51.262;6.802;2023-07-31T04:55:37;100733.97;;;21.59;nan
79372;BME280;68914;51.262;6.802;2023-07-31T04:56:43;100730.41;;;21.79;nan
79372;BME280;68914;51.262;6.802;2023-07-31T04:57:50;100730.00;;;21.16;nan
79372;BME280;68914;51.262;6.802;2023-07-31T04:58:51;100727.56;;;21.40;nan
79372;BME280;68914;51.262;6.802;2023-07-31T04:59:54;100717.03;;;21.64;nan
79372;BME280;68914;51.262;6.802;2023-07-31T05:00:55;100717.63;;;21.45;nan
79372;BME280;68914;51.262;6.802;2023-07-31T05:02:01;100721.56;;;21.73;nan
79372;BME280;68914;51.262;6.802;2023-07-31T05:03:02;100717.06;;;21.58;nan
79372;BME280;68914;51.262;6.802;2023-07-31T05:04:06;100722.22;;;21.19;nan
79372;BME280;68914;51.262;6.802;2023-07-31T05:05:06;100715.50;;;21.37;nan
79372;BME280;68914;51.262;6.802;2023-07-31T05:06:07;100713.78;;;21.72;nan
79372;BME280;68914;51.262;6.802;2023-07-31T05:07:14;100716.47;;;21.72;nan
79372;BME280;68914;51.262;6.802;2023-07-31T05:08:20;100715.88;;;21.85;nan
79372;BME280;68914;51.262;6.802;2023-07-31T05:09:27;100721.88;;;21.56;nan
79372;BME280;68914;51.262;6.802;2023-07-31T05:10:33;100712.13;;;21.86;nan
79372;BME280;68914;51.262;6.802;2023-07-31T05:11:34;100715.13;;;21.69;nan
79372;BME280;68914;51.262;6.802;2023-07-31T05:12:40;100709.50;;;21.71;nan
79372;BME280;68914;51.262;6.802;2023-07-31T05:13:41;100710.06;;;21.63;nan
79372;BME280;68914;51.262;6.802;2023-07-31T05:14:47;100717.81;;;21.74;nan
79372;BME280;68914;51.262;6.802;2023-07-31T05:15:54;100703.63;;;21.53;nan
79372;BME280;68914;51.262;6.802;2023-07-31T05:17:03;100704.97;;;21.61;nan
79372;BME280;68914;51.262;6.802;2023-07-31T05:18:10;100705.81;;;21.26;nan
79372;BME280;68914;51.262;6.802;2023-07-31T05:19:10;100702.06;;;21.47;nan
79372;BME280;68914;51.262;6.802;2023-07-31T05:20:11;100707.16;;;21.49;nan
79372;BME280;68914;51.262;6.802;2023-07-31T05:21:12;100695.63;;;21.43;nan
79372;BME280;68914;51.262;6.802;2023-07-31T05:22:15;100698.28;;;21.53;nan
79372;BME280;68914;51.262;6.802;2023-07-31T05:23:21;100705.56;;;21.43;nan
79372;BME280;68914;51.262;6.802;2023-07-31T05:24:28;100697.13;;;21.70;nan
79372;BME280;68914;51.262;6.802;2023-07-31T05:25:29;100690.28;;;21.33;nan
79372;BME280;68914;51.262;6.802;2023-07-31T05:26:30;100694.88;;;21.07;nan
79372;BME280;68914;51.262;6.802;2023-07-31T05:27:31;100689.47;;;21.27;nan
79372;BME280;68914;51.262;6.802;2023-07-31T05:28:37;100698.84;;;21.25;nan
79372;BME280;68914;51.262;6.802;2023-07-31T05:29:44;100694.88;;;21.12;nan
79372;BME280;68914;51.262;6.802;2023-07-31T05:30:51;100689.47;;;21.17;nan
79372;BME280;68914;51.262;6.802;2023-07-31T05:31:58;100696.19;;;21.40;nan
79372;BME280;68914;51.262;6.802;2023-07-31T05:33:04;100692.41;;;21.51;nan
79372;BME280;68914;51.262;6.802;2023-07-31T05:34:05;100684.88;;;21.53;nan
79372;BME280;68914;51.262;6.802;2023-07-31T05:35:11;100674.06;;;21.74;nan
79372;BME280;68914;51.262;6.802;2023-07-31T05:36:18;100686.25;;;21.41;nan
79372;BME280;68914;51.262;6.802;2023-07-31T05:37:19;100687.28;;;21.50;nan
79372;BME280;68914;51.262;6.802;2023-07-31T05:38:40;100674.72;;;21.40;nan
79372;BME280;68914;51.262;6.802;2023-07-31T05:39:41;100677.94;;;21.42;nan
79372;BME280;68914;51.262;6.802;2023-07-31T05:40:42;100678.41;;;21.59;nan
79372;BME280;68914;51.262;6.802;2023-07-31T05:41:43;100664.31;;;21.88;nan
79372;BME280;68914;51.262;6.802;2023-07-31T05:42:49;100665.38;;;21.92;nan
79372;BME280;68914;51.262;6.802;2023-07-31T05:43:56;100667.22;;;22.02;nan
79372;BME280;68914;51.262;6.802;2023-07-31T05:44:56;100673.06;;;21.59;nan
79372;BME280;68914;51.262;6.802;2023-07-31T05:46:03;100671.25;;;21.34;nan
79372;BME280;68914;51.262;6.802;2023-07-31T05:47:04;100674.00;;;21.84;nan
79372;BME280;68914;51.262;6.802;2023-07-31T05:48:06;100667.88;;;21.73;nan
79372;BME280;68914;51.262;6.802;2023-07-31T05:49:12;100668.28;;;22.01;nan
79372;BME280;68914;51.262;6.802;2023-07-31T05:50:19;100666.97;;;21.98;nan
79372;BME280;68914;51.262;6.802;2023-07-31T05:51:23;100673.38;;;21.43;nan
79372;BME280;68914;51.262;6.802;2023-07-31T05:52:23;100669.56;;;21.59;nan
79372;BME280;68914;51.262;6.802;2023-07-31T05:53:30;100666.03;;;21.69;nan
79372;BME280;68914;51.262;6.802;2023-07-31T05:54:36;100656.00;;;21.90;nan
79372;BME280;68914;51.262;6.802;2023-07-31T05:55:43;100659.59;;;21.65;nan
79372;BME280;68914;51.262;6.802;2023-07-31T05:56:43;100652.94;;;21.62;nan
79372;BME280;68914;51.262;6.802;2023-07-31T05:57:47;100666.72;;;21.95;nan
79372;BME280;68914;51.262;6.802;2023-07-31T05:59:14;100661.38;;;21.84;nan
79372;BME280;68914;51.262;6.802;2023-07-31T06:00:17;100658.75;;;21.79;nan
79372;BME280;68914;51.262;6.802;2023-07-31T06:01:18;100655.84;;;21.71;nan